createdAt,value
2022-11-01T00:00:32.180Z,53.49
2022-11-01T00:02:58.852Z,53.40
2022-11-01T00:05:27.406Z,53.56
2022-11-01T00:07:54.019Z,53.16
2022-11-01T00:10:20.864Z,53.58
2022-11-01T00:12:48.534Z,53.65
2022-11-01T00:15:15.151Z,53.79
2022-11-01T00:17:42.226Z,54.38
2022-11-01T00:20:10.737Z,54.72
2022-11-01T00:22:38.660Z,54.65
2022-11-01T00:25:06.342Z,55.09
2022-11-01T00:27:33.198Z,55.43
2022-11-01T00:29:59.995Z,55.51
2022-11-01T00:32:27.351Z,56.03
2022-11-01T00:34:54.576Z,56.02
2022-11-01T00:37:21.455Z,55.50
2022-11-01T00:39:49.399Z,56.43
2022-11-01T00:42:16.232Z,56.52
2022-11-01T00:44:43.473Z,55.86
2022-11-01T00:47:10.300Z,55.69
2022-11-01T00:49:38.334Z,56.78
2022-11-01T00:52:05.407Z,57.30
2022-11-01T00:54:32.947Z,57.11
2022-11-01T00:57:02.056Z,57.15
2022-11-01T00:59:28.991Z,56.88
2022-11-01T01:01:55.975Z,56.52
2022-11-01T01:04:23.090Z,56.50
2022-11-01T01:06:49.732Z,56.12
2022-11-01T01:09:16.681Z,56.28
2022-11-01T01:11:43.644Z,56.39
2022-11-01T01:14:12.216Z,56.27
2022-11-01T01:16:39.509Z,56.06
2022-11-01T01:19:06.194Z,55.84
2022-11-01T01:21:34.100Z,56.10
2022-11-01T01:24:00.616Z,55.96
2022-11-01T01:26:27.471Z,55.93
2022-11-01T01:28:54.613Z,56.03
2022-11-01T01:31:23.327Z,55.75
2022-11-01T01:33:50.918Z,55.75
2022-11-01T01:36:17.781Z,55.28
2022-11-01T01:38:44.937Z,55.54
2022-11-01T01:41:12.175Z,55.03
2022-11-01T01:43:43.853Z,55.44
2022-11-01T01:46:10.490Z,55.06
2022-11-01T01:48:40.732Z,55.55
2022-11-01T01:51:13.907Z,55.26
2022-11-01T01:53:45.729Z,54.75
2022-11-01T01:56:18.629Z,54.75
2022-11-01T01:58:51.114Z,55.17
2022-11-01T02:01:18.138Z,55.90
2022-11-01T02:03:47.350Z,55.56
2022-11-01T02:06:16.610Z,55.72
2022-11-01T02:08:45.272Z,54.92
2022-11-01T02:11:13.188Z,55.36
2022-11-01T02:13:40.744Z,55.51
2022-11-01T02:16:36.847Z,55.73
2022-11-01T02:19:44.567Z,54.91
2022-11-01T02:22:21.954Z,55.10
2022-11-01T02:25:05.560Z,56.08
2022-11-01T02:27:47.493Z,56.08
2022-11-01T02:30:17.211Z,56.69
2022-11-01T02:33:13.432Z,56.79
2022-11-01T02:35:48.192Z,56.92
2022-11-01T02:38:23.586Z,57.74
2022-11-01T02:41:00.829Z,58.12
2022-11-01T02:43:34.570Z,58.00
2022-11-01T02:46:03.531Z,58.08
2022-11-01T02:48:32.367Z,58.65
2022-11-01T02:51:00.330Z,58.88
2022-11-01T02:53:27.506Z,58.62
2022-11-01T02:55:54.530Z,58.97
2022-11-01T02:58:24.423Z,58.40
2022-11-01T03:00:51.733Z,58.89
2022-11-01T03:03:23.332Z,59.06
2022-11-01T03:06:07.025Z,59.06
2022-11-01T03:08:41.152Z,59.98
2022-11-01T03:11:11.280Z,59.93
2022-11-01T03:13:53.697Z,59.77
2022-11-01T03:16:28.453Z,59.47
2022-11-01T03:19:06.451Z,60.67
2022-11-01T03:21:40.709Z,59.90
2022-11-01T03:24:17.958Z,60.15
2022-11-01T03:26:50.457Z,60.21
2022-11-01T03:29:19.564Z,61.66
2022-11-01T03:31:49.738Z,60.74
2022-11-01T03:34:20.155Z,61.35
2022-11-01T03:36:52.990Z,60.81
2022-11-01T03:39:24.918Z,61.28
2022-11-01T03:41:58.871Z,61.10
2022-11-01T03:44:30.801Z,61.27
2022-11-01T03:46:57.835Z,61.54
2022-11-01T03:49:24.703Z,61.46
2022-11-01T03:51:53.069Z,61.26
2022-11-01T03:54:19.595Z,61.47
2022-11-01T03:56:47.193Z,61.44
2022-11-01T03:59:14.116Z,61.60
2022-11-01T04:01:40.816Z,61.66
2022-11-01T04:04:07.847Z,61.06
2022-11-01T04:06:34.633Z,61.48
2022-11-01T04:09:03.199Z,60.52
2022-11-01T04:11:29.736Z,60.56
2022-11-01T04:13:56.765Z,60.31
2022-11-01T04:16:23.502Z,60.22
2022-11-01T04:18:50.166Z,61.22
2022-11-01T04:21:19.097Z,61.51
2022-11-01T04:23:47.332Z,61.74
2022-11-01T04:26:17.453Z,61.91
2022-11-01T04:28:44.589Z,61.42
2022-11-01T04:31:12.225Z,60.91
2022-11-01T04:33:39.339Z,60.65
2022-11-01T04:36:07.574Z,61.46
2022-11-01T04:38:34.745Z,61.52
2022-11-01T04:41:01.909Z,61.59
2022-11-01T04:43:29.787Z,61.13
2022-11-01T04:45:56.959Z,60.97
2022-11-01T04:48:24.299Z,61.65
2022-11-01T04:50:50.841Z,61.29
2022-11-01T04:53:17.513Z,61.20
2022-11-01T04:55:44.006Z,60.76
2022-11-01T04:58:10.553Z,61.09
2022-11-01T05:00:41.517Z,61.54
2022-11-01T05:03:08.307Z,62.14
2022-11-01T05:05:35.559Z,61.47
2022-11-01T05:10:35.085Z,62.70
2022-11-01T05:13:02.308Z,61.89
2022-11-01T05:15:29.445Z,62.11
2022-11-01T05:17:57.666Z,61.65
2022-11-01T05:20:24.240Z,61.28
2022-11-01T05:22:51.221Z,61.31
2022-11-01T05:25:17.754Z,62.94
2022-11-01T05:27:44.354Z,62.09
2022-11-01T05:30:12.276Z,60.96
2022-11-01T05:32:39.140Z,61.34
2022-11-01T05:35:07.811Z,61.78
2022-11-01T05:37:37.169Z,61.98
2022-11-01T05:40:04.334Z,62.00
2022-11-01T05:42:30.901Z,61.27
2022-11-01T05:44:57.516Z,60.99
2022-11-01T05:47:26.446Z,60.98
2022-11-01T05:49:53.002Z,60.63
2022-11-01T05:52:21.053Z,60.76
2022-11-01T05:54:47.762Z,60.99
2022-11-01T05:57:14.287Z,61.07
2022-11-01T05:59:40.795Z,60.37
2022-11-01T06:02:07.802Z,60.75
2022-11-01T06:04:49.474Z,60.90
2022-11-01T06:07:16.067Z,59.83
2022-11-01T06:09:44.294Z,59.76
2022-11-01T06:12:12.293Z,60.04
2022-11-01T06:14:39.266Z,58.99
2022-11-01T06:17:07.253Z,58.81
2022-11-01T06:19:33.746Z,58.29
2022-11-01T06:22:00.631Z,58.13
2022-11-01T06:24:33.016Z,57.07
2022-11-01T06:27:01.072Z,57.40
2022-11-01T06:29:27.773Z,56.00
2022-11-01T06:31:54.616Z,53.87
2022-11-01T06:34:21.398Z,53.42
2022-11-01T06:36:50.918Z,52.52
2022-11-01T06:39:18.693Z,52.91
2022-11-01T06:41:53.727Z,52.84
2022-11-01T06:44:23.974Z,53.05
2022-11-01T06:46:51.528Z,51.68
2022-11-01T06:49:58.280Z,51.88
2022-11-01T06:52:41.065Z,51.19
2022-11-01T06:55:33.589Z,51.60
2022-11-01T06:58:13.651Z,51.40
2022-11-01T07:00:44.295Z,50.93
2022-11-01T07:03:21.350Z,51.41
2022-11-01T07:05:48.186Z,50.50
2022-11-01T07:08:16.886Z,50.77
2022-11-01T07:10:52.843Z,51.11
2022-11-01T07:13:22.260Z,50.34
2022-11-01T07:15:59.977Z,50.69
2022-11-01T07:18:58.429Z,50.47
2022-11-01T07:22:32.017Z,51.23
2022-11-01T07:27:39.171Z,51.56
2022-11-01T07:30:12.014Z,52.38
2022-11-01T07:32:43.825Z,52.53
2022-11-01T07:35:13.480Z,51.69
2022-11-01T07:37:50.164Z,51.55
2022-11-01T07:40:24.481Z,51.48
2022-11-01T07:42:58.764Z,51.20
2022-11-01T07:45:35.468Z,50.92
2022-11-01T07:48:16.656Z,50.13
2022-11-01T07:50:49.633Z,49.33
2022-11-01T07:53:20.907Z,48.50
2022-11-01T07:55:51.881Z,48.29
2022-11-01T07:58:26.795Z,48.74
2022-11-01T08:01:07.621Z,47.79
2022-11-01T08:03:41.108Z,47.46
2022-11-01T08:06:10.410Z,46.96
2022-11-01T08:08:40.446Z,46.41
2022-11-01T08:11:13.115Z,45.97
2022-11-01T08:13:43.864Z,46.08
2022-11-01T08:16:15.863Z,46.53
2022-11-01T08:18:48.318Z,46.71
2022-11-01T08:21:15.315Z,46.36
2022-11-01T08:23:42.213Z,46.30
2022-11-01T08:26:08.990Z,45.36
2022-11-01T08:28:35.597Z,45.40
2022-11-01T08:31:05.649Z,43.79
2022-11-01T08:33:32.370Z,42.70
2022-11-01T08:36:00.326Z,43.09
2022-11-01T08:38:27.004Z,41.72
2022-11-01T08:40:53.907Z,41.09
2022-11-01T08:43:21.723Z,41.55
2022-11-01T08:45:49.317Z,40.96
2022-11-01T08:48:16.232Z,41.40
2022-11-01T08:50:43.092Z,41.06
2022-11-01T08:53:13.253Z,41.01
2022-11-01T08:55:42.731Z,41.55
2022-11-01T08:58:09.523Z,41.50
2022-11-01T09:00:36.303Z,41.18
2022-11-01T09:03:03.449Z,41.27
2022-11-01T09:05:30.064Z,42.07
2022-11-01T09:07:57.996Z,41.42
2022-11-01T09:10:26.543Z,41.31
2022-11-01T09:12:53.755Z,41.60
2022-11-01T09:15:20.384Z,42.18
2022-11-01T09:17:47.256Z,42.00
2022-11-01T09:20:13.780Z,42.10
2022-11-01T09:22:42.416Z,42.06
2022-11-01T09:25:10.044Z,42.26
2022-11-01T09:27:38.513Z,42.23
2022-11-01T09:30:06.380Z,41.57
2022-11-01T09:32:38.056Z,42.15
2022-11-01T09:35:06.112Z,42.30
2022-11-01T09:37:32.727Z,41.93
2022-11-01T09:39:59.388Z,41.78
2022-11-01T09:42:31.063Z,41.89
2022-11-01T09:45:05.001Z,41.92
2022-11-01T09:47:33.254Z,42.43
2022-11-01T09:50:05.682Z,42.25
2022-11-01T09:52:33.193Z,42.15
2022-11-01T09:54:59.825Z,42.58
2022-11-01T09:57:34.362Z,42.34
2022-11-01T10:00:10.730Z,41.56
2022-11-01T10:03:16.484Z,41.89
2022-11-01T10:05:51.247Z,42.57
2022-11-01T10:08:31.064Z,42.77
2022-11-01T10:11:14.466Z,42.24
2022-11-01T10:13:52.238Z,43.27
2022-11-01T10:16:31.119Z,42.92
2022-11-01T10:19:03.705Z,42.67
2022-11-01T10:21:40.850Z,43.20
2022-11-01T10:24:14.625Z,42.56
2022-11-01T10:26:41.619Z,42.53
2022-11-01T10:29:16.151Z,41.65
2022-11-01T10:31:47.862Z,42.07
2022-11-01T10:34:21.177Z,41.79
2022-11-01T10:36:48.956Z,42.60
2022-11-01T10:39:53.235Z,42.23
2022-11-01T10:42:09.069Z,42.93
2022-11-01T10:44:39.634Z,42.31
2022-11-01T10:47:13.554Z,42.35
2022-11-01T10:50:04.964Z,41.90
2022-11-01T10:52:36.733Z,41.71
2022-11-01T10:55:05.138Z,41.91
2022-11-01T10:57:38.160Z,42.02
2022-11-01T11:00:14.649Z,41.69
2022-11-01T11:02:45.897Z,41.76
2022-11-01T11:05:13.413Z,41.93
2022-11-01T11:07:40.430Z,41.84
2022-11-01T11:10:21.032Z,42.52
2022-11-01T11:12:54.024Z,42.17
2022-11-01T11:15:25.659Z,41.53
2022-11-01T11:17:59.409Z,41.44
2022-11-01T11:20:27.350Z,41.43
2022-11-01T11:22:53.911Z,41.12
2022-11-01T11:25:27.910Z,41.03
2022-11-01T11:27:54.648Z,41.05
2022-11-01T11:30:29.791Z,40.74
2022-11-01T11:32:58.648Z,41.33
2022-11-01T11:35:27.493Z,40.37
2022-11-01T11:37:56.515Z,41.57
2022-11-01T11:40:24.914Z,41.14
2022-11-01T11:42:55.020Z,40.63
2022-11-01T11:45:27.457Z,41.05
2022-11-01T11:47:54.802Z,40.56
2022-11-01T11:50:30.366Z,40.84
2022-11-01T11:52:59.878Z,40.76
2022-11-01T11:55:35.007Z,41.16
2022-11-01T11:58:07.279Z,40.78
2022-11-01T12:00:39.301Z,40.51
2022-11-01T12:03:14.932Z,40.80
2022-11-01T12:05:53.490Z,40.93
2022-11-01T12:08:29.555Z,40.50
2022-11-01T12:10:57.928Z,40.22
2022-11-01T12:13:33.089Z,40.04
2022-11-01T12:16:18.763Z,39.60
2022-11-01T12:18:49.781Z,39.35
2022-11-01T12:21:22.187Z,39.80
2022-11-01T12:27:21.474Z,39.51
2022-11-01T12:30:09.456Z,39.38
2022-11-01T12:32:49.941Z,39.46
2022-11-01T12:35:29.933Z,39.53
2022-11-01T12:38:38.410Z,39.64
2022-11-01T12:41:24.270Z,39.69
2022-11-01T12:44:28.857Z,40.15
2022-11-01T12:46:59.873Z,39.88
2022-11-01T12:49:55.269Z,40.71
2022-11-01T12:52:29.915Z,39.86
2022-11-01T12:55:08.564Z,40.64
2022-11-01T12:57:35.549Z,40.45
2022-11-01T13:00:19.308Z,41.09
2022-11-01T13:02:59.204Z,40.61
2022-11-01T13:05:34.574Z,40.44
2022-11-01T13:08:22.520Z,39.92
2022-11-01T13:10:50.981Z,40.81
2022-11-01T13:13:28.367Z,40.43
2022-11-01T13:16:04.723Z,40.84
2022-11-01T13:18:42.762Z,41.00
2022-11-01T13:21:15.422Z,41.12
2022-11-01T13:23:47.678Z,40.27
2022-11-01T13:26:22.980Z,41.57
2022-11-01T13:29:00.617Z,40.41
2022-11-01T13:31:37.648Z,40.77
2022-11-01T13:34:16.534Z,41.00
2022-11-01T13:36:49.400Z,41.66
2022-11-01T13:39:25.294Z,40.82
2022-11-01T13:42:03.345Z,40.93
2022-11-01T13:44:35.576Z,41.06
2022-11-01T13:47:38.155Z,40.88
2022-11-01T13:50:44.902Z,40.87
2022-11-01T13:53:17.620Z,41.18
2022-11-01T13:55:52.609Z,41.18
2022-11-01T13:58:22.560Z,40.73
2022-11-01T14:00:52.282Z,40.70
2022-11-01T14:03:24.179Z,40.57
2022-11-01T14:06:26.175Z,40.37
2022-11-01T14:09:32.591Z,40.63
2022-11-01T14:12:12.060Z,40.69
2022-11-01T14:14:51.798Z,40.71
2022-11-01T14:17:53.116Z,40.65
2022-11-01T14:20:50.552Z,41.21
2022-11-01T14:23:58.548Z,41.66
2022-11-01T14:26:53.573Z,40.71
2022-11-01T14:29:20.328Z,41.21
2022-11-01T14:31:51.661Z,41.54
2022-11-01T14:34:25.138Z,41.69
2022-11-01T14:36:55.485Z,41.36
2022-11-01T14:39:31.384Z,41.04
2022-11-01T14:41:59.607Z,41.48
2022-11-01T14:44:31.667Z,41.47
2022-11-01T14:47:04.992Z,42.21
2022-11-01T14:49:37.939Z,41.88
2022-11-01T14:52:10.695Z,41.66
2022-11-01T14:54:47.305Z,42.37
2022-11-01T14:57:22.474Z,42.39
2022-11-01T14:59:49.000Z,42.16
2022-11-01T15:02:17.431Z,42.41
2022-11-01T15:04:45.740Z,42.55
2022-11-01T15:07:19.527Z,42.43
2022-11-01T15:09:55.527Z,43.17
2022-11-01T15:12:22.581Z,43.32
2022-11-01T15:14:50.342Z,43.40
2022-11-01T15:17:22.079Z,43.54
2022-11-01T15:19:51.093Z,43.31
2022-11-01T15:22:20.088Z,43.10
2022-11-01T15:24:51.700Z,42.62
2022-11-01T15:27:21.079Z,42.74
2022-11-01T15:29:48.501Z,43.59
2022-11-01T15:32:25.897Z,43.27
2022-11-01T15:34:53.196Z,42.82
2022-11-01T15:37:22.557Z,42.91
2022-11-01T15:39:54.339Z,43.99
2022-11-01T15:42:22.481Z,44.38
2022-11-01T15:44:49.596Z,44.67
2022-11-01T15:47:19.932Z,45.44
2022-11-01T15:49:51.507Z,44.68
2022-11-01T15:52:20.849Z,45.71
2022-11-01T15:54:52.187Z,45.62
2022-11-01T15:57:22.479Z,45.41
2022-11-01T15:59:56.600Z,45.32
2022-11-01T16:02:28.525Z,45.61
2022-11-01T16:04:58.401Z,45.69
2022-11-01T16:07:26.691Z,45.86
2022-11-01T16:09:55.977Z,46.12
2022-11-01T16:12:24.618Z,46.23
2022-11-01T16:14:54.264Z,46.17
2022-11-01T16:17:30.514Z,46.34
2022-11-01T16:19:58.698Z,46.17
2022-11-01T16:22:29.035Z,47.07
2022-11-01T16:25:14.882Z,47.25
2022-11-01T16:27:53.089Z,47.91
2022-11-01T16:30:37.372Z,47.29
2022-11-01T16:33:10.897Z,47.31
2022-11-01T16:35:42.141Z,47.64
2022-11-01T16:38:24.942Z,47.10
2022-11-01T16:40:54.956Z,47.54
2022-11-01T16:43:21.874Z,48.47
2022-11-01T16:45:48.458Z,48.07
2022-11-01T16:48:25.062Z,47.74
2022-11-01T16:50:54.745Z,47.58
2022-11-01T16:53:21.787Z,48.52
2022-11-01T16:55:48.943Z,48.08
2022-11-01T16:58:17.917Z,48.73
2022-11-01T17:00:55.228Z,49.07
2022-11-01T17:03:23.632Z,48.75
2022-11-01T17:05:55.922Z,48.90
2022-11-01T17:08:27.189Z,49.28
2022-11-01T17:10:54.121Z,49.65
2022-11-01T17:13:20.728Z,49.92
2022-11-01T17:15:49.471Z,49.96
2022-11-01T17:18:24.253Z,49.73
2022-11-01T17:20:53.208Z,49.76
2022-11-01T17:23:23.143Z,50.13
2022-11-01T17:25:52.619Z,50.70
2022-11-01T17:28:23.899Z,50.24
2022-11-01T17:31:01.955Z,51.03
2022-11-01T17:33:36.517Z,50.83
2022-11-01T17:36:05.288Z,50.32
2022-11-01T17:38:37.079Z,50.63
2022-11-01T17:41:18.253Z,51.46
2022-11-01T17:43:47.748Z,51.05
2022-11-01T17:46:18.601Z,51.13
2022-11-01T17:48:45.850Z,50.99
2022-11-01T17:51:12.722Z,51.11
2022-11-01T17:53:39.465Z,51.00
2022-11-01T17:56:08.945Z,51.28
2022-11-01T17:58:46.807Z,51.45
2022-11-01T18:01:21.294Z,51.17
2022-11-01T18:03:59.165Z,51.46
2022-11-01T18:06:26.510Z,51.12
2022-11-01T18:08:55.837Z,51.67
2022-11-01T18:11:36.120Z,51.31
2022-11-01T18:14:12.920Z,51.29
2022-11-01T18:16:48.870Z,52.07
2022-11-01T18:19:43.550Z,52.24
2022-11-01T18:22:19.080Z,52.27
2022-11-01T18:24:51.566Z,53.01
2022-11-01T18:27:24.488Z,52.76
2022-11-01T18:29:51.827Z,52.51
2022-11-01T18:32:30.866Z,52.51
2022-11-01T18:35:02.957Z,52.40
2022-11-01T18:37:40.383Z,53.50
2022-11-01T18:40:16.831Z,53.01
2022-11-01T18:42:46.754Z,52.45
2022-11-01T18:45:19.844Z,52.96
2022-11-01T18:50:36.060Z,53.36
2022-11-01T18:53:15.483Z,53.38
2022-11-01T18:56:15.587Z,53.93
2022-11-01T18:58:46.730Z,53.29
2022-11-01T19:01:17.272Z,53.91
2022-11-01T19:03:44.244Z,53.44
2022-11-01T19:06:21.125Z,53.55
2022-11-01T19:08:55.922Z,54.14
2022-11-01T19:11:22.772Z,53.91
2022-11-01T19:13:51.081Z,54.16
2022-11-01T19:16:19.007Z,54.38
2022-11-01T19:18:46.434Z,54.48
2022-11-01T19:21:15.756Z,55.55
2022-11-01T19:23:44.276Z,54.85
2022-11-01T19:26:20.289Z,54.56
2022-11-01T19:28:51.755Z,54.99
2022-11-01T19:31:29.179Z,54.83
2022-11-01T19:33:59.030Z,54.97
2022-11-01T19:36:36.235Z,54.85
2022-11-01T19:39:21.682Z,55.93
2022-11-01T19:41:49.425Z,56.02
2022-11-01T19:44:21.444Z,55.48
2022-11-01T19:46:49.466Z,55.64
2022-11-01T19:49:22.655Z,55.33
2022-11-01T19:51:59.043Z,55.32
2022-11-01T19:54:29.702Z,55.71
2022-11-01T19:56:59.205Z,55.83
2022-11-01T19:59:27.119Z,55.67
2022-11-01T20:01:55.918Z,56.26
2022-11-01T20:04:27.653Z,56.24
2022-11-01T20:06:56.945Z,56.55
2022-11-01T20:09:26.256Z,56.62
2022-11-01T20:11:53.501Z,56.50
2022-11-01T20:14:24.137Z,56.38
2022-11-01T20:16:53.660Z,55.65
2022-11-01T20:19:21.683Z,56.46
2022-11-01T20:21:48.221Z,56.13
2022-11-01T20:24:14.979Z,56.08
2022-11-01T20:26:42.802Z,56.54
2022-11-01T20:29:09.739Z,56.27
2022-11-01T20:31:36.474Z,55.94
2022-11-01T20:34:03.850Z,55.38
2022-11-01T20:36:33.427Z,56.43
2022-11-01T20:39:01.548Z,56.36
2022-11-01T20:41:28.604Z,56.26
2022-11-01T20:43:55.159Z,55.80
2022-11-01T20:46:21.988Z,56.23
2022-11-01T20:48:48.498Z,56.31
2022-11-01T20:51:15.386Z,56.25
2022-11-01T20:53:43.615Z,56.25
2022-11-01T20:56:10.246Z,56.08
2022-11-01T20:58:39.720Z,55.63
2022-11-01T21:01:13.027Z,55.44
2022-11-01T21:03:39.712Z,55.79
2022-11-01T21:06:11.627Z,55.71
2022-11-01T21:08:38.443Z,55.85
2022-11-01T21:11:14.114Z,56.25
2022-11-01T21:13:42.781Z,56.03
2022-11-01T21:16:20.217Z,56.03
2022-11-01T21:18:46.888Z,56.29
2022-11-01T21:21:35.069Z,56.28
2022-11-01T21:24:29.688Z,56.20
2022-11-01T21:27:26.424Z,56.62
2022-11-01T21:29:57.998Z,56.29
2022-11-01T21:32:26.772Z,56.23
2022-11-01T21:34:53.849Z,56.06
2022-11-01T21:37:21.319Z,56.69
2022-11-01T21:39:53.774Z,56.59
2022-11-01T21:42:30.326Z,56.93
2022-11-01T21:44:56.907Z,56.78
2022-11-01T21:47:24.971Z,56.91
2022-11-01T21:49:51.601Z,57.06
2022-11-01T21:52:18.492Z,56.38
2022-11-01T21:54:45.935Z,57.17
2022-11-01T21:57:13.645Z,57.12
2022-11-01T21:59:42.098Z,56.96
2022-11-01T22:02:13.220Z,57.31
2022-11-01T22:04:40.381Z,57.47
2022-11-01T22:07:09.059Z,57.48
2022-11-01T22:09:35.768Z,57.61
2022-11-01T22:12:02.463Z,57.27
2022-11-01T22:14:29.213Z,57.58
2022-11-01T22:16:57.086Z,57.60
2022-11-01T22:19:23.952Z,57.84
2022-11-01T22:21:50.593Z,58.08
2022-11-01T22:24:17.273Z,57.76
2022-11-01T22:26:43.793Z,58.53
2022-11-01T22:29:10.505Z,57.07
2022-11-01T22:31:37.124Z,56.58
2022-11-01T22:34:05.095Z,57.49
2022-11-01T22:36:35.423Z,57.29
2022-11-01T22:39:11.321Z,56.90
2022-11-01T22:41:42.402Z,56.43
2022-11-01T22:44:13.717Z,56.85
2022-11-01T22:46:45.758Z,57.59
2022-11-01T22:49:16.743Z,56.64
2022-11-01T22:51:46.107Z,56.22
2022-11-01T22:54:34.362Z,56.47
2022-11-01T22:57:09.299Z,56.19
2022-11-01T22:59:39.132Z,56.10
2022-11-01T23:02:23.994Z,56.29
2022-11-01T23:04:57.871Z,56.03
2022-11-01T23:07:32.679Z,55.48
2022-11-01T23:09:59.821Z,55.26
2022-11-01T23:12:26.296Z,55.14
2022-11-01T23:14:52.773Z,55.39
2022-11-01T23:17:21.479Z,55.46
2022-11-01T23:19:52.524Z,56.00
2022-11-01T23:22:21.471Z,56.29
2022-11-01T23:24:50.200Z,55.57
2022-11-01T23:27:17.012Z,56.48
2022-11-01T23:29:43.662Z,56.00
2022-11-01T23:32:11.669Z,55.56
2022-11-01T23:34:38.273Z,55.91
2022-11-01T23:37:12.951Z,55.29
2022-11-01T23:39:39.593Z,55.61
2022-11-01T23:42:14.034Z,55.29
2022-11-01T23:44:41.641Z,55.33
2022-11-01T23:47:19.029Z,55.27
2022-11-01T23:49:46.576Z,55.16
2022-11-01T23:52:26.882Z,55.50
2022-11-01T23:54:53.501Z,55.03
2022-11-01T23:57:21.285Z,55.71
2022-11-01T23:59:49.619Z,54.91
